Time,TemperatureF,DewpointF,PressureIn,WindDirection,WindDirectionDegrees,WindSpeedMPH,WindSpeedGustMPH,Humidity,HourlyPrecipIn,Conditions,Clouds,dailyrainin,SoftwareType,DateUTC
2013-07-30 00:22:00,56.0,53.0,30.05,NW,319,5.0,15.0,90,0.00,,,0.00,,2013-07-30 07:22:00,
2013-07-30 00:33:00,56.0,53.0,30.05,NW,319,5.0,11.0,90,0.00,,,0.00,,2013-07-30 07:33:00,
2013-07-30 00:43:00,56.0,53.0,30.05,North,351,6.0,11.0,89,0.00,,,0.00,,2013-07-30 07:43:00,
2013-07-30 01:02:00,56.0,52.0,30.05,North,350,7.0,14.0,87,0.00,,,0.00,,2013-07-30 08:02:00,
2013-07-30 01:12:00,56.0,52.0,30.05,North,355,5.0,10.0,87,0.00,,,0.00,,2013-07-30 08:12:00,
2013-07-30 01:32:00,56.0,52.0,30.06,NNW,345,9.0,13.0,88,0.00,,,0.00,,2013-07-30 08:32:00,
2013-07-30 01:52:00,56.0,53.0,30.06,North,1,13.0,16.0,89,0.00,,,0.00,,2013-07-30 08:52:00,
2013-07-30 02:02:00,56.0,53.0,30.06,North,350,10.0,14.0,90,0.00,,,0.00,,2013-07-30 09:02:00,
2013-07-30 02:32:00,56.0,53.0,30.07,North,351,7.0,13.0,89,0.00,,,0.00,,2013-07-30 09:32:00,
2013-07-30 02:43:00,56.0,53.0,30.07,NNW,345,11.0,15.0,90,0.00,,,0.00,,2013-07-30 09:43:00,
2013-07-30 02:53:00,56.0,53.0,30.07,NNW,344,1.0,15.0,90,0.00,,,0.00,,2013-07-30 09:53:00,
2013-07-30 03:01:00,56.0,53.0,30.07,NNW,344,6.0,10.0,89,0.00,,,0.00,,2013-07-30 10:01:00,
2013-07-30 03:11:00,56.0,53.0,30.08,North,357,7.0,13.0,89,0.00,,,0.00,,2013-07-30 10:11:00,
2013-07-30 03:43:00,56.0,53.0,30.08,NNW,345,5.0,14.0,90,0.00,,,0.00,,2013-07-30 10:43:00,
2013-07-30 03:52:00,57.0,54.0,30.08,North,352,4.0,14.0,90,0.00,,,0.00,,2013-07-30 10:52:00,
2013-07-30 04:02:00,57.0,54.0,30.08,NNW,345,7.0,13.0,91,0.00,,,0.00,,2013-07-30 11:02:00,
2013-07-30 04:33:00,57.0,54.0,30.09,NNW,347,5.0,12.0,90,0.00,,,0.00,,2013-07-30 11:33:00,
2013-07-30 04:43:00,57.0,54.0,30.09,NNW,348,8.0,12.0,90,0.00,,,0.00,,2013-07-30 11:43:00,
2013-07-30 04:53:00,57.0,54.0,30.09,NNW,348,6.0,12.0,91,0.00,,,0.00,,2013-07-30 11:53:00,
2013-07-30 05:11:00,57.0,54.0,30.09,North,350,6.0,12.0,91,0.00,,,0.00,,2013-07-30 12:11:00,
2013-07-30 05:33:00,57.0,54.0,30.09,North,351,11.0,14.0,91,0.01,,,0.01,,2013-07-30 12:33:00,
2013-07-30 05:42:00,57.0,54.0,30.09,North,355,9.0,15.0,91,0.01,,,0.01,,2013-07-30 12:42:00,
2013-07-30 05:53:00,57.0,54.0,30.09,NNW,347,7.0,15.0,91,0.01,,,0.01,,2013-07-30 12:53:00,
2013-07-30 06:52:00,57.0,54.0,30.10,North,357,6.0,14.0,89,0.00,,,0.01,,2013-07-30 13:52:00,
2013-07-30 07:32:00,57.0,54.0,30.11,NNW,347,7.0,11.0,90,0.00,,,0.01,,2013-07-30 14:32:00,
2013-07-30 07:53:00,57.0,54.0,30.11,NNW,338,8.0,12.0,91,0.00,,,0.01,,2013-07-30 14:53:00,
2013-07-30 08:33:00,58.0,55.0,30.12,NNW,347,7.0,12.0,90,0.00,,,0.01,,2013-07-30 15:33:00,
2013-07-30 08:43:00,58.0,55.0,30.12,North,351,6.0,14.0,89,0.00,,,0.01,,2013-07-30 15:43:00,
2013-07-30 08:52:00,58.0,55.0,30.11,NNW,338,6.0,11.0,89,0.00,,,0.01,,2013-07-30 15:52:00,
2013-07-30 09:43:00,58.0,53.0,30.11,NW,317,9.0,13.0,84,0.00,,,0.01,,2013-07-30 16:43:00,
2013-07-30 09:52:00,58.0,53.0,30.11,NW,308,7.0,14.0,83,0.00,,,0.01,,2013-07-30 16:52:00,
2013-07-30 10:32:00,59.0,54.0,30.11,NW,326,8.0,12.0,85,0.00,,,0.01,,2013-07-30 17:32:00,
2013-07-30 13:11:00,63.0,56.0,30.12,North,0,0.0,0.0,79,0.00,,,0.01,,2013-07-30 20:11:00,
2013-07-30 13:32:00,64.0,58.0,30.12,North,0,0.0,0.0,80,0.00,,,0.01,,2013-07-30 20:32:00,
2013-07-30 13:43:00,64.0,57.0,30.12,North,0,0.0,0.0,78,0.00,,,0.01,,2013-07-30 20:43:00,
2013-07-30 13:52:00,65.0,58.0,30.12,North,0,0.0,0.0,78,0.00,,,0.01,,2013-07-30 20:52:00,
2013-07-30 14:01:00,65.0,57.0,30.12,North,0,0.0,0.0,76,0.00,,,0.01,,2013-07-30 21:01:00,
2013-07-30 14:22:00,65.0,58.0,30.12,North,0,0.0,0.0,77,0.00,,,0.01,,2013-07-30 21:22:00,
2013-07-30 14:52:00,66.0,58.0,30.11,North,0,0.0,0.0,75,0.00,,,0.01,,2013-07-30 21:52:00,
2013-07-30 15:32:00,66.0,57.0,30.11,North,0,0.0,0.0,74,0.00,,,0.01,,2013-07-30 22:32:00,
2013-07-30 15:42:00,66.0,57.0,30.11,North,0,0.0,0.0,74,0.00,,,0.01,,2013-07-30 22:42:00,
2013-07-30 15:52:00,66.0,57.0,30.10,North,0,0.0,0.0,73,0.00,,,0.01,,2013-07-30 22:52:00,
2013-07-30 16:01:00,66.0,57.0,30.10,North,0,0.0,0.0,73,0.00,,,0.01,,2013-07-30 23:01:00,
2013-07-30 16:11:00,65.0,57.0,30.10,North,0,0.0,0.0,75,0.00,,,0.01,,2013-07-30 23:11:00,
2013-07-30 16:21:00,66.0,57.0,30.10,North,0,0.0,0.0,74,0.00,,,0.01,,2013-07-30 23:21:00,
2013-07-30 16:53:00,64.0,56.0,30.09,North,0,0.0,0.0,76,0.00,,,0.01,,2013-07-30 23:53:00,
2013-07-30 17:31:00,63.0,56.0,30.10,North,0,0.0,0.0,78,0.00,,,0.01,,2013-07-31 00:31:00,
2013-07-30 17:43:00,63.0,56.0,30.10,North,0,0.0,0.0,79,0.00,,,0.01,,2013-07-31 00:43:00,
2013-07-30 18:32:00,62.0,56.0,30.10,North,0,0.0,0.0,80,0.00,,,0.01,,2013-07-31 01:32:00,
2013-07-30 18:52:00,62.0,56.0,30.10,North,0,0.0,0.0,82,0.00,,,0.01,,2013-07-31 01:52:00,
2013-07-30 19:01:00,61.0,56.0,30.10,North,0,0.0,0.0,83,0.00,,,0.01,,2013-07-31 02:01:00,
2013-07-30 19:11:00,62.0,57.0,30.09,North,0,0.0,0.0,83,0.00,,,0.01,,2013-07-31 02:11:00,
2013-07-30 19:21:00,62.0,57.0,30.09,North,0,0.0,0.0,83,0.00,,,0.01,,2013-07-31 02:21:00,
2013-07-30 19:42:00,62.0,56.0,30.10,NW,317,7.0,16.0,82,0.00,,,0.01,,2013-07-31 02:42:00,
2013-07-30 19:52:00,61.0,56.0,30.10,NW,308,10.0,18.0,84,0.00,,,0.01,,2013-07-31 02:52:00,
2013-07-30 20:01:00,60.0,55.0,30.09,NW,308,13.0,17.0,85,0.00,,,0.01,,2013-07-31 03:01:00,
2013-07-30 20:11:00,60.0,55.0,30.10,NW,310,13.0,17.0,85,0.00,,,0.01,,2013-07-31 03:11:00,
2013-07-30 20:22:00,60.0,56.0,30.10,NW,316,11.0,18.0,86,0.00,,,0.01,,2013-07-31 03:22:00,
2013-07-30 20:52:00,60.0,56.0,30.10,NW,315,9.0,17.0,86,0.00,,,0.01,,2013-07-31 03:52:00,
2013-07-30 21:01:00,60.0,56.0,30.10,NW,309,10.0,15.0,87,0.00,,,0.01,,2013-07-31 04:01:00,
2013-07-30 21:11:00,60.0,56.0,30.10,NW,309,10.0,15.0,87,0.00,,,0.01,,2013-07-31 04:11:00,
2013-07-30 21:22:00,59.0,55.0,30.10,NW,317,8.0,16.0,87,0.00,,,0.01,,2013-07-31 04:22:00,
2013-07-30 21:32:00,59.0,55.0,30.10,NW,317,8.0,16.0,87,0.00,,,0.01,,2013-07-31 04:32:00,
2013-07-30 21:42:00,59.0,55.0,30.11,NNW,343,6.0,13.0,87,0.00,,,0.01,,2013-07-31 04:42:00,
2013-07-30 21:52:00,59.0,55.0,30.11,NNW,343,6.0,13.0,87,0.00,,,0.01,,2013-07-31 04:52:00,
2013-07-30 22:01:00,59.0,55.0,30.11,NNW,343,6.0,13.0,87,0.00,,,0.01,,2013-07-31 05:01:00,
2013-07-30 22:11:00,59.0,55.0,30.12,NW,316,7.0,15.0,87,0.00,,,0.01,,2013-07-31 05:11:00,
2013-07-30 22:21:00,59.0,55.0,30.12,NW,316,6.0,15.0,87,0.00,,,0.01,,2013-07-31 05:21:00,
2013-07-30 22:32:00,59.0,55.0,30.12,NW,319,6.0,14.0,87,0.00,,,0.01,,2013-07-31 05:32:00,
2013-07-30 22:42:00,59.0,55.0,30.12,North,357,5.0,14.0,87,0.00,,,0.01,,2013-07-31 05:42:00,
2013-07-30 22:51:00,59.0,55.0,30.12,NW,319,7.0,14.0,87,0.00,,,0.01,,2013-07-31 05:51:00,
2013-07-30 23:01:00,59.0,55.0,30.12,NW,315,8.0,14.0,87,0.00,,,0.01,,2013-07-31 06:01:00,
2013-07-30 23:11:00,59.0,55.0,30.12,NW,312,10.0,15.0,87,0.00,,,0.01,,2013-07-31 06:11:00,
2013-07-30 23:42:00,59.0,55.0,30.11,NW,322,10.0,16.0,87,0.00,,,0.01,,2013-07-31 06:42:00,
2013-07-30 23:52:00,59.0,55.0,30.11,NW,322,10.0,16.0,87,0.00,,,0.01,,2013-07-31 06:52:00,